This is the latest recevied weather packets stored in our database for station/object W4DHW-4. If no packets are shown the sender has not sent any weather packets the latest 10 day(s).
| Time | Temp. | Humidity | Pressure | Rain* | Wind** | Luminosity | Snow |
|---|---|---|---|---|---|---|---|
| 1777659674 | 16.67° C | 44% | 1013.3 hPa | 0 mm | - | 711 W/m² | - |
| 1777659372 | 16.67° C | 44% | 1013.4 hPa | 0 mm | - | 741 W/m² | - |
| 1777659068 | 17.22° C | 45% | 1013.4 hPa | 0 mm | - | 756 W/m² | - |
| 1777658767 | 16.67° C | 44% | 1013.5 hPa | 0 mm | - | 757 W/m² | - |
| 1777658462 | 16.67° C | 44% | 1013.9 hPa | 0 mm | - | 94 W/m² | - |
| 1777658159 | 16.11° C | 43% | 1013.9 hPa | 0 mm | - | 256 W/m² | - |
| 1777657856 | 16.67° C | 45% | 1013.8 hPa | 0 mm | - | 759 W/m² | - |
| 1777657553 | 16.67° C | 45% | 1013.8 hPa | 0 mm | - | 750 W/m² | - |
| 1777657251 | 16.67° C | 44% | 1013.9 hPa | 0 mm | - | 740 W/m² | - |
| 1777656947 | 16.67° C | 44% | 1014 hPa | 0 mm | - | 764 W/m² | - |
| 1777656644 | 16.67° C | 44% | 1013.8 hPa | 0 mm | - | 715 W/m² | - |
| 1777656339 | 16.67° C | 44% | 1014 hPa | 0 mm | - | 672 W/m² | - |
| 1777656035 | 16.11° C | 43% | 1014 hPa | 0 mm | - | 707 W/m² | - |
| 1777655732 | 16.11° C | 43% | 1014.2 hPa | 0 mm | - | 768 W/m² | - |
| 1777655428 | 15.56° C | 44% | 1014.3 hPa | 0 mm | - | 744 W/m² | - |
| 1777655125 | 16.11° C | 42% | 1014.4 hPa | 0 mm | - | 750 W/m² | - |
| 1777654823 | 16.11° C | 45% | 1014.3 hPa | 0 mm | - | 778 W/m² | - |
| 1777654521 | 15.56° C | 44% | 1014.4 hPa | 0 mm | - | 789 W/m² | - |
| 1777654218 | 15.56° C | 43% | 1014.6 hPa | 0 mm | - | 784 W/m² | - |
| 1777653915 | 15.56° C | 45% | 1014.5 hPa | 0 mm | - | 782 W/m² | - |
| 1777653612 | 15.56° C | 45% | 1014.5 hPa | 0 mm | - | 766 W/m² | - |
| 1777653309 | 15.56° C | 47% | 1014.9 hPa | 0 mm | - | 768 W/m² | - |
| 1777653005 | 15.56° C | 49% | 1014.8 hPa | 0 mm | - | 776 W/m² | - |
| 1777652701 | 15° C | 49% | 1014.8 hPa | 0 mm | - | 796 W/m² | - |
| 1777652398 | 15° C | 48% | 1014.7 hPa | 0 mm | - | 802 W/m² | - |
* Rain latest hour (hover to see other rain measurements)
** Current wind speed in m/s (hover to see current wind gust speed)